Time;durP1;ratioP1;P1;durP2;ratioP2;P2;SDS_P1;SDS_P2;PMS_P1;PMS_P2;Temp;Humidity;BMP_temperature;BMP_pressure;BME280_temperature;BME280_humidity;BME280_pressure;Samples;Min_cycle;Max_cycle;Signal;HPM_P1;HPM_P2
2023/01/21 00:02:12;;;;;;;23.58;11.15;;;1.10;1.00;;;;;;5090698;28;20228;-86
2023/01/21 00:04:50;;;;;;;24.45;12.40;;;1.10;1.00;;;;;;5077386;28;20246;-82
2023/01/21 00:07:30;;;;;;;25.77;12.00;;;1.20;1.00;;;;;;5086624;28;20220;-84
2023/01/21 00:10:03;;;;;;;24.05;13.43;;;1.20;1.00;;;;;;5081635;28;20274;-85
2023/01/21 00:12:31;;;;;;;30.67;11.82;;;1.30;1.00;;;;;;5069126;28;20230;-85
2023/01/21 00:15:04;;;;;;;24.38;13.23;;;1.20;1.00;;;;;;5071874;28;20267;-83
2023/01/21 00:17:34;;;;;;;21.25;11.90;;;1.30;1.00;;;;;;5063928;28;20240;-81
2023/01/21 00:20:02;;;;;;;20.65;10.10;;;1.30;1.00;;;;;;5054326;28;20308;-82
2023/01/21 00:22:34;;;;;;;21.60;10.27;;;1.20;1.00;;;;;;5082005;28;20336;-81
2023/01/21 00:25:03;;;;;;;22.10;10.57;;;1.10;1.00;;;;;;5072073;28;20290;-84
2023/01/21 00:27:32;;;;;;;19.05;8.88;;;1.10;1.00;;;;;;5051178;28;20345;-84
2023/01/21 00:30:13;;;;;;;20.90;10.45;;;1.20;1.00;;;;;;5066479;28;20331;-85
2023/01/21 00:32:41;;;;;;;23.10;11.05;;;1.20;1.00;;;;;;5046206;28;20245;-83
2023/01/21 00:35:15;;;;;;;18.83;9.18;;;1.20;1.00;;;;;;5050342;28;20240;-86
2023/01/21 00:37:42;;;;;;;20.85;11.10;;;1.20;1.00;;;;;;5060746;28;20235;-83
2023/01/21 00:40:12;;;;;;;21.05;10.82;;;1.20;1.00;;;;;;5059255;28;20241;-84
2023/01/21 00:42:39;;;;;;;16.65;8.88;;;1.20;1.00;;;;;;5043901;28;20236;-85
2023/01/21 00:45:24;;;;;;;19.25;9.70;;;1.30;1.00;;;;;;5057410;28;20237;-83
2023/01/21 00:47:52;;;;;;;22.85;11.30;;;1.30;1.00;;;;;;5049429;28;20228;-84
2023/01/21 00:50:19;;;;;;;21.02;10.38;;;1.20;1.00;;;;;;5058238;28;20243;-85
2023/01/21 00:52:53;;;;;;;19.67;10.35;;;1.20;1.00;;;;;;5056443;28;21071;-83
2023/01/21 00:55:21;;;;;;;17.77;9.65;;;1.20;1.00;;;;;;5074760;28;20240;-86
2023/01/21 00:57:48;;;;;;;26.00;11.10;;;1.30;1.00;;;;;;5046650;28;20297;-85
2023/01/21 01:00:23;;;;;;;18.25;9.77;;;1.20;1.00;;;;;;5076177;28;20222;-85
2023/01/21 01:05:43;;;;;;;19.17;9.63;;;1.20;1.00;;;;;;5083485;27;20243;-83
2023/01/21 01:08:12;;;;;;;20.38;10.27;;;1.10;1.00;;;;;;5118610;27;20235;-84
2023/01/21 01:10:41;;;;;;;15.65;8.52;;;1.10;1.00;;;;;;5097513;27;20301;-86
2023/01/21 01:13:22;;;;;;;18.20;9.68;;;1.10;1.00;;;;;;5109313;27;20318;-84
2023/01/21 01:15:54;;;;;;;24.05;9.50;;;1.00;1.00;;;;;;5079499;27;20330;-84
2023/01/21 01:18:23;;;;;;;17.13;8.65;;;1.00;1.00;;;;;;5111961;27;20234;-83
2023/01/21 01:21:03;;;;;;;16.55;8.38;;;1.00;1.00;;;;;;5124672;27;20245;-85
2023/01/21 01:23:31;;;;;;;20.00;10.85;;;1.10;1.00;;;;;;5089364;27;21037;-83
2023/01/21 01:26:24;;;;;;;29.10;13.50;;;1.00;1.00;;;;;;5094378;27;20232;-87
2023/01/21 01:28:53;;;;;;;28.08;12.88;;;1.00;1.00;;;;;;5071789;27;20275;-84
2023/01/21 01:31:23;;;;;;;29.80;13.73;;;1.00;1.00;;;;;;5121533;27;20233;-85
2023/01/21 01:33:52;;;;;;;31.02;15.50;;;1.10;1.00;;;;;;5108559;27;20269;-85
2023/01/21 01:36:23;;;;;;;29.48;14.15;;;1.20;1.00;;;;;;5111194;27;20273;-86
2023/01/21 01:38:52;;;;;;;32.30;15.55;;;1.20;1.00;;;;;;5097888;27;20240;-85
2023/01/21 01:41:31;;;;;;;30.40;14.95;;;1.30;1.00;;;;;;5101336;27;20220;-86
2023/01/21 01:44:31;;;;;;;33.10;16.73;;;1.30;1.00;;;;;;5083388;27;20254;-85
2023/01/21 01:47:04;;;;;;;33.25;15.30;;;1.40;1.00;;;;;;5077194;27;20227;-83
2023/01/21 01:49:33;;;;;;;38.28;17.35;;;1.50;1.00;;;;;;5084965;27;20239;-84
2023/01/21 01:52:04;;;;;;;32.33;15.23;;;1.50;1.00;;;;;;5089796;28;20294;-85
2023/01/21 01:57:32;;;;;;;29.50;14.57;;;1.50;1.00;;;;;;5098265;27;20308;-86
2023/01/21 02:00:06;;;;;;;28.10;14.70;;;1.50;1.00;;;;;;5126703;27;20259;-85
2023/01/21 02:03:43;;;;;;;29.80;16.25;;;1.50;1.00;;;;;;5099792;27;21199;-84
2023/01/21 02:05:34;;;;;;;35.30;13.52;;;1.50;1.00;;;;;;5122887;27;20266;-83
2023/01/21 02:08:02;;;;;;;26.83;13.60;;;1.60;1.00;;;;;;5094698;27;20235;-84
2023/01/21 02:10:30;;;;;;;28.42;14.90;;;1.60;1.00;;;;;;5118424;27;20304;-82
2023/01/21 02:13:05;;;;;;;25.52;13.93;;;1.60;1.00;;;;;;5120696;27;20219;-86
2023/01/21 02:15:51;;;;;;;31.33;14.55;;;1.70;1.00;;;;;;5120246;27;20231;-86
2023/01/21 02:18:39;;;;;;;26.90;13.50;;;1.70;1.00;;;;;;5118619;27;20322;-82
2023/01/21 02:21:49;;;;;;;25.90;13.13;;;1.80;1.00;;;;;;5121531;27;20253;-85
2023/01/21 02:25:15;;;;;;;24.45;14.88;;;1.80;1.00;;;;;;5103595;27;21067;-85
2023/01/21 02:27:55;;;;;;;28.38;13.63;;;1.80;1.00;;;;;;5037113;28;20237;-84
2023/01/21 02:30:43;;;;;;;28.63;14.63;;;1.80;1.00;;;;;;5056125;28;20253;-85
2023/01/21 02:33:34;;;;;;;24.08;12.52;;;1.80;1.00;;;;;;5122739;27;20299;-86
2023/01/21 02:36:20;;;;;;;24.25;13.00;;;1.80;1.00;;;;;;5122803;27;20235;-86
2023/01/21 02:38:54;;;;;;;28.95;15.25;;;1.80;1.00;;;;;;5102816;27;20245;-85
2023/01/21 02:41:42;;;;;;;28.15;13.20;;;1.80;1.00;;;;;;5099318;27;20227;-85
2023/01/21 02:44:22;;;;;;;24.67;13.82;;;1.80;1.00;;;;;;5096179;27;20327;-86
2023/01/21 02:53:02;;;;;;;27.35;13.57;;;2.00;1.00;;;;;;5040991;27;20282;-82
2023/01/21 02:55:41;;;;;;;25.35;13.77;;;1.90;1.00;;;;;;5110612;27;21064;-80
2023/01/21 03:01:22;;;;;;;27.20;13.18;;;1.90;1.00;;;;;;5105406;27;21043;-86
2023/01/21 03:04:19;;;;;;;28.05;12.98;;;1.90;1.00;;;;;;5074806;28;23034;-85
2023/01/21 03:07:10;;;;;;;24.95;12.60;;;1.90;1.00;;;;;;5080790;27;20228;-85
2023/01/21 03:09:43;;;;;;;25.52;13.95;;;1.90;1.00;;;;;;5079220;27;20739;-84
2023/01/21 03:18:23;;;;;;;26.30;12.75;;;2.00;1.00;;;;;;5102603;27;20247;-86
2023/01/21 03:20:53;;;;;;;26.35;13.02;;;2.00;1.00;;;;;;5112901;27;20240;-88
2023/01/21 03:23:27;;;;;;;23.10;11.88;;;2.00;1.00;;;;;;5107492;27;20231;-85
2023/01/21 03:26:00;;;;;;;25.60;13.32;;;2.00;1.00;;;;;;5124868;27;20273;-83
2023/01/21 03:28:43;;;;;;;27.02;13.50;;;2.00;1.00;;;;;;5103966;27;20246;-85
2023/01/21 03:31:23;;;;;;;26.15;13.57;;;1.90;1.00;;;;;;5089165;27;20228;-85
2023/01/21 03:34:09;;;;;;;26.70;14.05;;;1.90;1.00;;;;;;5103763;27;20273;-85
2023/01/21 03:36:50;;;;;;;27.38;16.92;;;2.00;1.00;;;;;;5084477;27;20298;-86
2023/01/21 03:39:29;;;;;;;21.48;12.60;;;2.00;1.00;;;;;;5116162;27;20253;-85
2023/01/21 03:42:30;;;;;;;25.73;14.05;;;2.00;1.00;;;;;;5100961;27;20220;-82
2023/01/21 03:45:22;;;;;;;25.98;12.68;;;2.00;1.00;;;;;;5096243;27;20227;-85
2023/01/21 03:48:00;;;;;;;27.67;12.57;;;2.00;1.00;;;;;;5073991;28;21081;-82
2023/01/21 03:50:53;;;;;;;22.27;12.65;;;1.90;1.00;;;;;;5094551;27;20248;-86
2023/01/21 03:53:23;;;;;;;23.35;12.55;;;1.90;1.00;;;;;;5098570;27;20232;-86
2023/01/21 03:55:52;;;;;;;21.42;11.68;;;1.80;1.00;;;;;;5097541;27;21037;-86
2023/01/21 03:58:23;;;;;;;21.95;11.23;;;1.80;1.00;;;;;;5100755;27;20231;-85
2023/01/21 04:00:51;;;;;;;24.00;11.90;;;1.70;1.00;;;;;;5084948;27;20233;-86
2023/01/21 04:03:43;;;;;;;23.02;12.05;;;1.70;1.00;;;;;;5119109;27;20235;-86
2023/01/21 04:06:24;;;;;;;;;;;;;;;;;;;;;
2023/01/21 04:08:53;;;;;;;21.02;11.82;;;1.70;1.00;;;;;;5095749;27;40402;-86
2023/01/21 04:11:28;;;;;;;24.83;11.43;;;1.70;1.00;;;;;;5081989;28;20235;-86
2023/01/21 04:14:11;;;;;;;19.25;10.52;;;1.70;1.00;;;;;;5093625;27;20301;-86
2023/01/21 04:16:50;;;;;;;20.30;10.35;;;1.70;1.00;;;;;;5074155;27;20232;-86
2023/01/21 04:19:17;;;;;;;21.80;11.70;;;1.80;1.00;;;;;;5112944;27;20237;-85
2023/01/21 04:21:51;;;;;;;18.38;9.82;;;1.80;1.00;;;;;;5065429;27;20266;-82
2023/01/21 04:24:21;;;;;;;22.20;10.77;;;1.80;1.00;;;;;;5084912;27;20286;-85
2023/01/21 04:27:02;;;;;;;26.20;11.65;;;1.90;1.00;;;;;;5108472;27;20338;-84
2023/01/21 04:29:42;;;;;;;18.63;9.65;;;1.90;1.00;;;;;;5103704;27;20243;-84
2023/01/21 04:32:12;;;;;;;15.80;8.85;;;1.90;1.00;;;;;;5082361;27;21129;-86
2023/01/21 04:34:42;;;;;;;18.95;10.68;;;1.90;1.00;;;;;;5081234;27;20227;-85
2023/01/21 04:37:12;;;;;;;17.13;8.75;;;1.90;1.00;;;;;;5091293;27;20266;-87
2023/01/21 04:39:39;;;;;;;18.77;10.57;;;1.90;1.00;;;;;;5095095;27;20768;-87
2023/01/21 04:42:22;;;;;;;16.98;9.55;;;1.80;1.00;;;;;;5087112;27;21130;-85
2023/01/21 04:44:52;;;;;;;17.27;9.23;;;1.80;1.00;;;;;;5073587;27;20283;-86
2023/01/21 04:47:23;;;;;;;16.08;8.40;;;1.80;1.00;;;;;;5089545;27;20236;-87
2023/01/21 04:49:54;;;;;;;15.18;8.50;;;1.70;1.00;;;;;;5086123;27;20267;-85
2023/01/21 04:52:21;;;;;;;17.08;9.07;;;1.70;1.00;;;;;;5109109;27;20239;-86
2023/01/21 04:54:54;;;;;;;16.27;8.27;;;1.60;1.00;;;;;;5078245;27;20269;-81
2023/01/21 04:57:24;;;;;;;16.90;8.65;;;1.50;1.00;;;;;;5091268;27;20231;-85
2023/01/21 04:59:51;;;;;;;17.85;8.18;;;1.40;1.00;;;;;;5076137;27;20238;-83
2023/01/21 05:02:32;;;;;;;15.23;7.85;;;1.40;1.00;;;;;;5099620;27;20215;-83
2023/01/21 05:05:02;;;;;;;17.65;8.07;;;1.50;1.00;;;;;;5091335;27;20219;-86
2023/01/21 05:07:32;;;;;;;16.00;9.13;;;1.60;1.00;;;;;;5076673;28;20276;-80
2023/01/21 05:10:01;;;;;;;16.42;7.63;;;1.60;1.00;;;;;;5084865;27;20231;-82
2023/01/21 05:12:32;;;;;;;16.50;7.95;;;1.60;1.00;;;;;;5114984;27;20289;-84
2023/01/21 05:14:59;;;;;;;15.65;8.93;;;1.50;1.00;;;;;;5108059;27;20247;-85
2023/01/21 05:17:29;;;;;;;18.38;8.90;;;1.40;1.00;;;;;;5117105;27;20242;-85
2023/01/21 05:20:00;;;;;;;16.05;8.18;;;1.40;1.00;;;;;;5106744;27;20258;-85
2023/01/21 05:22:33;;;;;;;13.70;7.85;;;1.40;1.00;;;;;;5080753;27;20274;-84
2023/01/21 05:25:00;;;;;;;18.80;9.02;;;1.40;1.00;;;;;;5084681;27;20585;-85
2023/01/21 05:27:43;;;;;;;15.60;8.15;;;1.50;1.00;;;;;;5108985;27;20925;-86
2023/01/21 05:30:14;;;;;;;15.32;8.55;;;1.50;1.00;;;;;;5096768;27;20234;-82
2023/01/21 05:32:42;;;;;;;15.73;8.57;;;1.60;1.00;;;;;;5082040;27;20239;-82
2023/01/21 05:35:12;;;;;;;21.83;12.20;;;1.60;1.00;;;;;;5080064;27;20286;-86
2023/01/21 05:37:39;;;;;;;18.10;8.27;;;1.60;1.00;;;;;;5071774;27;20267;-83
2023/01/21 05:40:20;;;;;;;16.65;8.48;;;1.60;1.00;;;;;;5105877;27;20227;-84
2023/01/21 05:43:02;;;;;;;16.80;9.27;;;1.70;1.00;;;;;;5080636;27;20275;-86
2023/01/21 05:45:31;;;;;;;15.65;8.27;;;1.80;1.00;;;;;;5081449;27;20238;-83
2023/01/21 05:48:03;;;;;;;14.48;8.23;;;1.80;1.00;;;;;;5096278;27;20314;-85
2023/01/21 05:50:35;;;;;;;17.23;8.75;;;1.80;1.00;;;;;;5073672;28;21560;-85
2023/01/21 05:53:03;;;;;;;16.73;8.10;;;1.90;1.00;;;;;;5099066;27;20246;-85
2023/01/21 05:55:32;;;;;;;16.80;8.80;;;1.90;1.00;;;;;;5084266;27;20239;-85
2023/01/21 05:58:00;;;;;;;17.02;8.40;;;1.90;1.00;;;;;;5091727;27;20236;-85
2023/01/21 06:00:32;;;;;;;16.65;8.88;;;2.00;1.00;;;;;;5099129;27;20227;-85
2023/01/21 06:03:02;;;;;;;16.98;8.85;;;2.00;1.00;;;;;;5114181;27;20286;-86
2023/01/21 06:05:32;;;;;;;14.93;7.13;;;2.10;1.00;;;;;;5096441;27;20243;-83
2023/01/21 06:08:02;;;;;;;14.65;7.32;;;2.10;1.00;;;;;;5088644;27;20250;-84
2023/01/21 06:10:32;;;;;;;19.75;9.35;;;2.20;1.00;;;;;;5078942;27;20244;-82
2023/01/21 06:13:03;;;;;;;16.63;8.73;;;2.10;1.00;;;;;;5105433;27;20314;-86
2023/01/21 06:15:32;;;;;;;17.50;8.77;;;2.10;1.00;;;;;;5075269;27;20247;-82
2023/01/21 06:17:59;;;;;;;17.95;8.35;;;2.10;1.00;;;;;;5087081;28;20235;-86
2023/01/21 06:20:33;;;;;;;18.90;8.82;;;2.10;1.00;;;;;;5101313;27;20231;-86
2023/01/21 06:23:02;;;;;;;20.50;8.90;;;2.10;1.00;;;;;;5097544;27;20233;-85
2023/01/21 06:25:33;;;;;;;22.42;11.23;;;2.10;1.00;;;;;;5087901;27;20226;-83
2023/01/21 06:28:02;;;;;;;20.48;11.68;;;2.00;1.00;;;;;;5097375;27;20240;-86
2023/01/21 06:30:29;;;;;;;22.05;11.35;;;1.90;1.00;;;;;;5115948;27;20246;-85
2023/01/21 06:33:02;;;;;;;18.92;10.73;;;1.90;1.00;;;;;;5117995;27;20246;-85
2023/01/21 06:35:32;;;;;;;20.40;11.32;;;1.90;1.00;;;;;;5115569;27;20229;-85
2023/01/21 06:38:02;;;;;;;20.27;12.00;;;1.90;1.00;;;;;;5070217;27;20248;-85
2023/01/21 06:40:31;;;;;;;19.67;10.80;;;2.00;1.00;;;;;;5074275;27;20220;-82
2023/01/21 06:43:03;;;;;;;20.92;12.00;;;1.90;1.00;;;;;;5094305;28;20309;-86
2023/01/21 06:45:32;;;;;;;21.88;11.60;;;1.90;1.00;;;;;;5076723;27;20700;-83
2023/01/21 06:47:58;;;;;;;19.75;11.45;;;1.90;1.00;;;;;;5100458;27;20793;-86
2023/01/21 06:50:31;;;;;;;20.00;11.90;;;2.00;1.00;;;;;;5115085;27;20239;-86
2023/01/21 06:53:04;;;;;;;25.23;12.50;;;1.90;1.00;;;;;;5089541;27;20247;-87
2023/01/21 06:55:33;;;;;;;18.70;12.10;;;2.00;1.00;;;;;;5069324;27;20235;-85
2023/01/21 06:58:12;;;;;;;24.35;13.23;;;1.90;1.00;;;;;;5077366;27;20235;-86
2023/01/21 07:00:42;;;;;;;21.27;12.75;;;1.90;1.00;;;;;;5071946;27;20232;-87
2023/01/21 07:03:11;;;;;;;23.63;13.85;;;2.10;1.00;;;;;;5085120;27;20227;-83
2023/01/21 07:05:54;;;;;;;25.55;14.82;;;2.00;1.00;;;;;;5081713;27;20243;-88
2023/01/21 07:08:23;;;;;;;25.38;15.35;;;1.90;1.00;;;;;;5084758;27;20860;-87
2023/01/21 07:10:53;;;;;;;22.00;14.00;;;1.80;1.00;;;;;;5086317;28;20240;-83
2023/01/21 07:16:12;;;;;;;21.52;13.32;;;1.60;1.00;;;;;;5050424;28;20263;-82
2023/01/21 07:18:41;;;;;;;25.52;15.07;;;1.50;1.00;;;;;;5065309;27;20235;-82
2023/01/21 07:21:13;;;;;;;22.77;13.10;;;1.50;1.00;;;;;;5081163;27;20234;-81
2023/01/21 07:23:42;;;;;;;22.08;15.00;;;1.50;1.00;;;;;;5093557;27;20247;-83
2023/01/21 07:26:21;;;;;;;22.58;14.35;;;1.60;1.00;;;;;;5083534;28;20243;-83
2023/01/21 07:29:14;;;;;;;22.48;14.13;;;1.60;1.00;;;;;;5079403;27;20246;-82
2023/01/21 07:31:44;;;;;;;23.35;14.38;;;1.70;1.00;;;;;;5060751;28;20710;-82
2023/01/21 07:34:13;;;;;;;26.95;15.73;;;1.70;1.00;;;;;;5075227;28;20235;-83
2023/01/21 07:36:43;;;;;;;21.48;13.80;;;1.80;1.00;;;;;;5059270;28;20329;-83
2023/01/21 07:39:12;;;;;;;22.10;13.70;;;1.80;1.00;;;;;;5072358;28;20267;-82
2023/01/21 07:41:42;;;;;;;25.10;14.07;;;1.90;1.00;;;;;;5088687;28;20327;-82
2023/01/21 07:44:12;;;;;;;25.40;15.52;;;1.90;1.00;;;;;;5063210;27;20232;-83
2023/01/21 07:46:42;;;;;;;23.65;14.68;;;1.90;1.00;;;;;;5098788;27;20247;-83
2023/01/21 07:49:22;;;;;;;23.77;14.25;;;1.90;1.00;;;;;;5084223;28;20980;-84
2023/01/21 07:52:10;;;;;;;27.67;16.17;;;2.00;1.00;;;;;;5075418;27;20744;-83
2023/01/21 07:54:52;;;;;;;21.60;13.98;;;2.10;1.00;;;;;;5065262;28;20322;-83
2023/01/21 07:57:22;;;;;;;24.58;14.82;;;2.20;1.00;;;;;;5078538;28;20220;-84
2023/01/21 08:00:14;;;;;;;21.70;14.48;;;2.20;1.00;;;;;;5079760;28;20329;-84
2023/01/21 08:02:55;;;;;;;24.17;14.68;;;2.20;1.00;;;;;;5069160;28;20486;-83
2023/01/21 08:05:23;;;;;;;27.25;17.08;;;2.30;1.00;;;;;;5078141;27;20247;-83
2023/01/21 08:07:52;;;;;;;21.65;14.95;;;2.30;1.00;;;;;;5067995;27;20230;-83
2023/01/21 08:10:22;;;;;;;27.23;15.65;;;2.30;1.00;;;;;;5276952;22;20240;-83
2023/01/21 08:12:52;;;;;;;25.70;17.00;;;2.40;1.00;;;;;;5072154;28;20701;-82
2023/01/21 08:15:24;;;;;;;22.38;14.55;;;2.40;1.00;;;;;;5070687;28;20328;-84
2023/01/21 08:17:54;;;;;;;22.63;15.25;;;2.30;1.00;;;;;;5083461;28;20283;-82
2023/01/21 08:20:31;;;;;;;26.38;15.43;;;2.30;1.00;;;;;;5099535;28;20244;-85
2023/01/21 08:23:02;;;;;;;24.77;15.55;;;2.30;1.00;;;;;;5095920;28;21022;-83
2023/01/21 08:25:30;;;;;;;23.60;14.65;;;2.40;1.00;;;;;;5099564;27;20266;-84
2023/01/21 08:28:01;;;;;;;33.55;16.73;;;2.50;1.00;;;;;;5086109;27;20257;-84
2023/01/21 08:30:32;;;;;;;24.83;16.77;;;2.50;1.00;;;;;;5076773;28;20243;-82
2023/01/21 08:33:01;;;;;;;25.73;16.20;;;2.60;1.00;;;;;;5089439;28;20231;-82
2023/01/21 08:35:31;;;;;;;23.70;16.10;;;2.60;1.00;;;;;;5093659;27;20235;-81
2023/01/21 08:38:03;;;;;;;24.52;15.38;;;2.70;1.00;;;;;;5086176;28;20302;-83
2023/01/21 08:40:43;;;;;;;24.00;14.90;;;2.70;1.00;;;;;;5074332;27;20242;-84
2023/01/21 08:43:12;;;;;;;25.38;13.88;;;2.70;1.00;;;;;;5088246;27;20245;-85
2023/01/21 08:45:43;;;;;;;24.60;16.08;;;2.80;1.00;;;;;;5079219;27;20368;-84
2023/01/21 08:48:32;;;;;;;24.88;16.58;;;2.80;1.00;;;;;;5072941;27;20241;-83
2023/01/21 08:51:10;;;;;;;25.10;16.27;;;2.90;1.00;;;;;;5087680;27;20396;-85
2023/01/21 08:54:01;;;;;;;21.17;12.98;;;2.90;1.00;;;;;;5082904;27;20222;-83
2023/01/21 08:56:43;;;;;;;22.20;14.80;;;2.90;1.00;;;;;;5084180;27;20239;-85
2023/01/21 08:59:13;;;;;;;24.70;16.25;;;3.00;1.00;;;;;;5097669;27;20219;-85
2023/01/21 09:01:52;;;;;;;28.40;16.85;;;3.00;1.00;;;;;;5069232;28;20355;-86
2023/01/21 09:04:25;;;;;;;25.25;15.95;;;3.00;1.00;;;;;;5088239;28;21035;-85
2023/01/21 09:06:52;;;;;;;22.60;14.43;;;3.00;1.00;;;;;;5098915;27;20333;-83
2023/01/21 09:09:23;;;;;;;22.95;15.30;;;3.00;1.00;;;;;;5107438;27;20293;-83
2023/01/21 09:11:51;;;;;;;22.70;12.93;;;3.00;1.00;;;;;;5100066;27;20765;-84
2023/01/21 09:14:20;;;;;;;22.38;14.38;;;3.10;1.00;;;;;;5110292;27;20239;-84
2023/01/21 09:16:54;;;;;;;23.75;14.38;;;3.20;1.00;;;;;;5095275;27;20247;-83
2023/01/21 09:19:24;;;;;;;21.83;13.60;;;3.20;1.00;;;;;;5098890;27;20331;-83
2023/01/21 09:22:01;;;;;;;22.75;14.35;;;3.20;1.00;;;;;;5072853;27;20349;-84
2023/01/21 09:24:33;;;;;;;25.75;14.60;;;3.30;1.00;;;;;;5083615;28;20235;-82
2023/01/21 09:27:00;;;;;;;25.85;14.57;;;3.40;1.00;;;;;;5106692;27;20245;-84
2023/01/21 09:29:29;;;;;;;22.20;14.40;;;3.40;1.00;;;;;;5086768;27;20228;-86
2023/01/21 09:35:03;;;;;;;22.40;13.27;;;3.50;1.00;;;;;;5057856;28;20248;-86
2023/01/21 09:37:34;;;;;;;21.92;13.82;;;3.60;1.00;;;;;;5069187;27;20785;-84
2023/01/21 09:40:04;;;;;;;19.67;13.77;;;3.60;1.00;;;;;;5086590;28;20265;-83
2023/01/21 09:42:34;;;;;;;21.85;12.95;;;3.60;1.00;;;;;;5082263;27;21085;-86
2023/01/21 09:45:14;;;;;;;;;;;;;;;;;;;;;
2023/01/21 09:47:51;;;;;;;19.77;12.85;;;3.90;1.00;;;;;;5085582;27;38717;-81
2023/01/21 09:50:42;;;;;;;20.67;13.15;;;3.90;1.00;;;;;;5082857;27;20276;-83
2023/01/21 09:56:21;;;;;;;20.85;12.73;;;4.00;1.00;;;;;;5092541;27;20237;-81
2023/01/21 09:59:02;;;;;;;21.23;13.05;;;4.00;1.00;;;;;;5078937;27;20818;-83
2023/01/21 10:01:42;;;;;;;24.25;13.32;;;4.10;1.00;;;;;;5087528;27;20369;-82
2023/01/21 10:04:34;;;;;;;25.27;13.25;;;4.20;1.00;;;;;;5090069;27;20988;-84
2023/01/21 10:07:14;;;;;;;20.25;12.30;;;4.20;1.00;;;;;;5074830;27;20256;-81
2023/01/21 10:10:03;;;;;;;22.58;12.60;;;4.20;1.00;;;;;;5068462;27;20309;-81
2023/01/21 10:12:42;;;;;;;23.50;13.75;;;4.20;1.00;;;;;;5105329;27;20311;-85
2023/01/21 10:15:38;;;;;;;23.80;13.65;;;4.20;1.00;;;;;;5116189;27;20241;-83
2023/01/21 10:18:12;;;;;;;21.60;11.85;;;4.30;1.00;;;;;;5074309;27;20730;-82
2023/01/21 10:20:51;;;;;;;23.27;13.13;;;4.30;1.00;;;;;;5090766;27;20242;-83
2023/01/21 10:26:24;;;;;;;30.38;15.00;;;4.30;1.00;;;;;;5063287;27;20248;-82
2023/01/21 10:28:58;;;;;;;29.30;17.15;;;4.30;1.00;;;;;;5061140;28;20239;-81
2023/01/21 10:31:32;;;;;;;26.50;15.90;;;4.30;1.00;;;;;;5076044;27;20264;-83
2023/01/21 10:34:13;;;;;;;24.15;13.80;;;4.30;1.00;;;;;;5076414;28;20269;-82
2023/01/21 10:37:22;;;;;;;27.60;14.93;;;4.40;1.00;;;;;;5090428;27;21061;-82
2023/01/21 10:43:23;;;;;;;24.33;13.43;;;4.40;1.00;;;;;;5057127;27;20252;-82
2023/01/21 10:46:03;;;;;;;26.83;13.45;;;4.50;1.00;;;;;;5081587;27;20237;-83
2023/01/21 10:48:53;;;;;;;22.98;12.68;;;4.60;1.00;;;;;;5081986;27;21652;-82
2023/01/21 10:51:36;;;;;;;23.58;12.90;;;4.60;1.00;;;;;;5093071;27;20247;-84
2023/01/21 10:54:22;;;;;;;22.98;13.77;;;4.80;1.00;;;;;;5046788;28;20245;-81
2023/01/21 10:57:22;;;;;;;28.05;13.48;;;4.90;1.00;;;;;;5085538;28;20310;-83
2023/01/21 10:59:52;;;;;;;24.48;13.32;;;5.00;1.00;;;;;;5087142;27;20249;-83
2023/01/21 11:02:31;;;;;;;30.90;12.82;;;5.20;1.00;;;;;;5108346;27;20811;-82
2023/01/21 11:05:12;;;;;;;20.83;11.45;;;5.30;1.00;;;;;;5095984;27;20326;-83
2023/01/21 11:07:50;;;;;;;27.38;15.05;;;5.30;1.00;;;;;;5088823;28;20274;-82
2023/01/21 11:10:34;;;;;;;20.92;13.02;;;5.40;1.00;;;;;;5092417;27;20238;-83
2023/01/21 11:13:12;;;;;;;25.63;12.65;;;5.50;1.00;;;;;;5045521;28;21076;-82
2023/01/21 11:15:51;;;;;;;24.75;13.80;;;5.70;1.00;;;;;;5022099;28;20383;-82
2023/01/21 11:18:42;;;;;;;18.50;12.10;;;5.80;1.00;;;;;;5034086;28;20974;-82
2023/01/21 11:21:21;;;;;;;18.25;11.57;;;5.90;1.00;;;;;;5091962;27;20223;-82
2023/01/21 11:24:04;;;;;;;19.98;11.27;;;6.00;1.00;;;;;;5077763;27;20261;-82
2023/01/21 11:26:45;;;;;;;;;;;;;;;;;;;;;
2023/01/21 11:29:14;;;;;;;21.27;11.88;;;6.20;1.00;;;;;;5063513;28;41148;-83
2023/01/21 11:31:51;;;;;;;22.00;11.50;;;6.10;1.00;;;;;;5075001;27;20329;-82
2023/01/21 11:34:24;;;;;;;24.58;12.52;;;6.10;1.00;;;;;;5091307;27;20243;-83
2023/01/21 11:39:54;;;;;;;18.35;11.05;;;6.20;1.00;;;;;;5091316;27;20342;-82
2023/01/21 11:42:23;;;;;;;16.92;10.98;;;6.20;1.00;;;;;;5088902;28;20246;-86
2023/01/21 11:45:04;;;;;;;17.00;10.00;;;6.30;1.00;;;;;;5084251;27;20292;-83
2023/01/21 11:47:55;;;;;;;24.40;11.52;;;6.30;1.00;;;;;;5074242;28;20992;-86
2023/01/21 11:53:16;;;;;;;24.48;12.10;;;6.10;1.00;;;;;;5094042;27;20281;-83
2023/01/21 11:55:52;;;;;;;16.27;9.30;;;6.10;1.00;;;;;;5101373;27;20239;-82
2023/01/21 11:58:41;;;;;;;20.50;10.55;;;6.00;1.00;;;;;;5088338;27;20235;-83
2023/01/21 12:01:24;;;;;;;18.70;12.60;;;5.90;1.00;;;;;;5071555;27;20983;-83
2023/01/21 12:10:03;;;;;;;29.20;14.30;;;5.90;1.00;;;;;;5084865;27;20235;-82
2023/01/21 12:12:44;;;;;;;19.83;9.00;;;5.90;1.00;;;;;;5074674;27;20243;-83
2023/01/21 12:18:32;;;;;;;17.75;9.23;;;5.90;1.00;;;;;;5059387;28;20268;-83
2023/01/21 12:21:11;;;;;;;14.25;7.97;;;6.00;1.00;;;;;;5092784;27;20334;-84
2023/01/21 12:24:02;;;;;;;13.98;7.57;;;6.00;1.00;;;;;;5080435;27;20236;-84
2023/01/21 12:26:51;;;;;;;21.02;8.73;;;6.10;1.00;;;;;;5081530;27;20237;-82
2023/01/21 12:29:41;;;;;;;13.70;6.70;;;6.10;1.00;;;;;;5090984;27;20267;-81
2023/01/21 12:32:21;;;;;;;12.85;7.13;;;6.20;1.00;;;;;;5102887;27;20294;-83
2023/01/21 12:34:54;;;;;;;14.55;7.50;;;6.00;1.00;;;;;;5112962;27;20215;-84
2023/01/21 12:40:37;;;;;;;17.13;8.25;;;6.00;1.00;;;;;;5075187;28;20319;-83
2023/01/21 12:43:13;;;;;;;22.60;6.30;;;6.00;1.00;;;;;;5084407;28;20676;-83
2023/01/21 12:46:03;;;;;;;13.93;5.50;;;6.00;1.00;;;;;;5077782;28;20242;-81
2023/01/21 12:48:41;;;;;;;14.50;6.70;;;5.90;1.00;;;;;;5079176;28;21109;-83
2023/01/21 12:54:23;;;;;;;18.38;6.97;;;5.90;1.00;;;;;;5092934;27;20297;-84
2023/01/21 12:59:51;;;;;;;9.65;5.32;;;5.80;1.00;;;;;;5073733;28;20242;-86
2023/01/21 13:02:42;;;;;;;14.85;5.22;;;5.70;1.00;;;;;;5085371;28;20231;-84
2023/01/21 13:05:23;;;;;;;13.15;6.03;;;5.70;1.00;;;;;;5096185;28;20301;-84
2023/01/21 13:08:14;;;;;;;13.25;6.28;;;5.60;1.00;;;;;;5098832;27;20233;-83
2023/01/21 13:10:54;;;;;;;10.98;5.28;;;5.50;1.00;;;;;;5086640;27;20224;-82
2023/01/21 13:13:44;;;;;;;15.82;5.57;;;5.50;1.00;;;;;;5086891;27;20244;-81
2023/01/21 13:16:15;;;;;;;10.77;5.53;;;5.40;1.00;;;;;;5083957;27;21232;-84
2023/01/21 13:18:55;;;;;;;13.95;6.00;;;5.40;1.00;;;;;;5090850;27;20301;-83
2023/01/21 13:21:39;;;;;;;13.80;5.55;;;5.40;1.00;;;;;;5092918;27;20242;-84
2023/01/21 13:24:24;;;;;;;18.70;6.60;;;5.50;1.00;;;;;;5082395;27;20953;-83
2023/01/21 13:30:13;;;;;;;15.48;5.35;;;5.40;1.00;;;;;;5023813;28;20237;-83
2023/01/21 13:32:52;;;;;;;14.55;5.80;;;5.50;1.00;;;;;;5021630;28;20327;-81
2023/01/21 13:35:35;;;;;;;11.27;5.75;;;5.40;1.00;;;;;;5028388;28;20568;-84
2023/01/21 13:38:23;;;;;;;11.98;4.97;;;5.50;1.00;;;;;;5043470;28;20323;-82
2023/01/21 13:44:31;;;;;;;11.70;4.22;;;5.50;1.00;;;;;;5056835;28;20245;-84
2023/01/21 13:47:33;;;;;;;14.10;4.82;;;5.40;1.00;;;;;;5099596;27;20235;-81
2023/01/21 13:53:41;;;;;;;11.98;5.03;;;5.40;1.00;;;;;;5077354;27;20707;-80
2023/01/21 13:56:28;;;;;;;23.85;20.40;;;5.30;1.00;;;;;;5078665;27;20295;-82
2023/01/21 13:59:02;;;;;;;15.95;7.00;;;5.30;1.00;;;;;;5114091;27;20624;-81
2023/01/21 14:01:37;;;;;;;12.15;6.53;;;5.30;1.00;;;;;;5121001;27;20243;-82
2023/01/21 14:04:12;;;;;;;12.45;4.85;;;5.30;1.00;;;;;;5117966;27;20897;-81
2023/01/21 14:07:11;;;;;;;18.65;6.00;;;5.30;1.00;;;;;;5089954;27;20238;-79
2023/01/21 14:10:03;;;;;;;10.60;4.55;;;5.20;1.00;;;;;;5074443;27;20248;-81
2023/01/21 14:12:57;;;;;;;16.20;5.45;;;5.20;1.00;;;;;;5095270;27;20250;-82
2023/01/21 14:15:54;;;;;;;11.85;4.60;;;5.20;1.00;;;;;;5098736;27;20297;-82
2023/01/21 14:18:41;;;;;;;13.98;4.75;;;5.20;1.00;;;;;;5125524;27;20258;-82
2023/01/21 14:21:24;;;;;;;10.82;4.28;;;5.10;1.00;;;;;;5104880;27;20827;-84
2023/01/21 14:24:32;;;;;;;11.45;4.35;;;5.00;1.00;;;;;;5088589;27;20364;-82
2023/01/21 14:27:35;;;;;;;13.38;3.97;;;5.10;1.00;;;;;;5098891;27;20235;-82
2023/01/21 14:30:21;;;;;;;9.68;3.72;;;5.00;1.00;;;;;;5091830;27;20241;-81
2023/01/21 14:32:56;;;;;;;12.48;3.97;;;4.90;1.00;;;;;;5093001;27;20239;-81
2023/01/21 14:35:31;;;;;;;10.30;4.28;;;4.80;1.00;;;;;;5114601;27;20611;-82
2023/01/21 14:38:09;;;;;;;15.43;5.10;;;4.80;1.00;;;;;;5123857;27;20227;-81
2023/01/21 14:40:45;;;;;;;8.40;3.80;;;4.90;1.00;;;;;;5118737;27;20234;-82
2023/01/21 14:43:48;;;;;;;16.05;5.32;;;4.90;1.00;;;;;;5122901;27;20333;-81
2023/01/21 14:46:35;;;;;;;9.80;3.60;;;4.90;1.00;;;;;;5096798;28;20240;-82
2023/01/21 14:49:06;;;;;;;7.68;3.30;;;4.80;1.00;;;;;;5118659;27;20331;-81
2023/01/21 14:51:41;;;;;;;8.23;3.05;;;4.70;1.00;;;;;;5126717;27;20247;-80
2023/01/21 14:54:16;;;;;;;11.05;4.20;;;4.70;1.00;;;;;;5125076;27;20239;-84